Time;durP1;ratioP1;P1;durP2;ratioP2;P2;SDS_P1;SDS_P2;PMS_P1;PMS_P2;Temp;Humidity;BMP_temperature;BMP_pressure;BME280_temperature;BME280_humidity;BME280_pressure;Samples;Min_cycle;Max_cycle;Signal;HPM_P1;HPM_P2
2022/06/04 00:00:42;;;;;;;2.70;2.50;;;16.90;99.90;;;;;;5014096;28;20405;-72
2022/06/04 00:03:08;;;;;;;2.40;2.20;;;16.90;99.90;;;;;;5013003;28;20180;-72
2022/06/04 00:05:37;;;;;;;2.13;1.93;;;16.90;99.90;;;;;;5013806;28;20421;-72
2022/06/04 00:08:04;;;;;;;3.20;2.37;;;16.90;99.90;;;;;;5013759;28;20505;-72
2022/06/04 00:16:07;;;;;;;2.77;2.20;;;16.90;99.90;;;;;;5014240;28;20473;-72
2022/06/04 00:18:33;;;;;;;2.73;2.53;;;17.00;99.90;;;;;;5014002;28;20483;-72
2022/06/04 00:20:59;;;;;;;3.63;2.87;;;16.90;99.90;;;;;;5013547;28;20918;-72
2022/06/04 00:23:26;;;;;;;2.90;2.50;;;16.90;99.90;;;;;;5013470;28;20420;-72
2022/06/04 00:25:54;;;;;;;2.43;2.00;;;16.90;99.90;;;;;;5013064;28;20189;-72
2022/06/04 00:28:22;;;;;;;3.03;2.43;;;16.90;99.90;;;;;;5013554;28;20414;-72
2022/06/04 00:30:48;;;;;;;2.53;2.33;;;16.90;99.90;;;;;;5013570;28;20475;-72
2022/06/04 00:33:16;;;;;;;3.87;2.53;;;16.90;99.90;;;;;;5013317;28;20418;-72
2022/06/04 00:35:42;;;;;;;2.07;1.87;;;16.90;99.90;;;;;;5013242;28;20411;-72
2022/06/04 00:38:08;;;;;;;5.00;2.37;;;16.90;99.90;;;;;;5013353;28;20464;-72
2022/06/04 00:40:48;;;;;;;4.30;2.70;;;16.90;99.90;;;;;;5013092;28;20770;-72
2022/06/04 00:43:13;;;;;;;2.33;2.13;;;16.90;99.90;;;;;;5013213;28;20187;-72
2022/06/04 00:46:21;;;;;;;2.30;2.10;;;16.90;99.90;;;;;;5012856;28;20409;-72
2022/06/04 00:48:46;;;;;;;3.00;1.97;;;16.90;99.90;;;;;;5013063;28;20545;-72
2022/06/04 00:51:13;;;;;;;2.13;1.93;;;16.80;99.90;;;;;;5013211;28;20494;-72
2022/06/04 00:53:39;;;;;;;1.93;1.83;;;16.80;99.90;;;;;;5012995;28;20172;-72
2022/06/04 00:56:22;;;;;;;2.40;2.20;;;16.80;99.90;;;;;;5012199;28;20475;-72
2022/06/04 00:59:14;;;;;;;3.97;2.43;;;16.80;99.90;;;;;;5012909;28;20459;-72
2022/06/04 01:01:57;;;;;;;2.77;2.10;;;16.80;99.90;;;;;;5012655;28;20906;-72
2022/06/04 01:04:48;;;;;;;3.03;2.70;;;16.80;99.90;;;;;;5012528;28;20408;-72
2022/06/04 01:07:41;;;;;;;2.50;2.10;;;16.80;99.90;;;;;;5012757;28;20423;-72
2022/06/04 01:10:30;;;;;;;2.27;2.07;;;16.70;99.90;;;;;;5012605;28;20395;-72
2022/06/04 01:13:17;;;;;;;2.73;2.40;;;16.70;99.90;;;;;;5012512;28;20395;-72
2022/06/04 01:15:52;;;;;;;2.33;2.13;;;16.70;99.90;;;;;;5012173;28;20435;-72
2022/06/04 01:18:34;;;;;;;2.53;1.93;;;16.70;99.90;;;;;;5012465;28;20860;-72
2022/06/04 01:21:13;;;;;;;3.20;3.00;;;16.70;99.90;;;;;;5012464;28;20403;-72
2022/06/04 01:24:04;;;;;;;2.23;2.13;;;16.70;99.90;;;;;;5012755;28;20397;-72
2022/06/04 01:26:59;;;;;;;2.10;2.00;;;16.60;99.90;;;;;;5011682;28;20466;-72
2022/06/04 01:29:33;;;;;;;2.60;2.30;;;16.60;99.90;;;;;;5012385;28;20434;-72
2022/06/04 01:32:05;;;;;;;2.40;2.10;;;16.60;99.90;;;;;;5012985;28;20442;-72
2022/06/04 01:34:42;;;;;;;2.63;2.43;;;16.60;99.90;;;;;;5012365;28;20929;-72
2022/06/04 01:37:38;;;;;;;3.70;2.73;;;16.60;99.90;;;;;;5012879;28;20438;-72
2022/06/04 01:42:54;;;;;;;2.23;2.13;;;16.60;99.90;;;;;;5012125;28;20411;-72
2022/06/04 01:45:23;;;;;;;2.40;2.20;;;16.60;99.90;;;;;;5012350;28;20527;-73
2022/06/04 01:47:51;;;;;;;2.70;2.50;;;16.50;99.90;;;;;;5009698;28;20427;-72
2022/06/04 01:50:23;;;;;;;3.90;2.30;;;16.50;99.90;;;;;;5011838;28;20787;-72
2022/06/04 01:52:52;;;;;;;3.73;2.20;;;16.50;99.90;;;;;;5011847;28;20911;-72
2022/06/04 01:55:26;;;;;;;2.33;2.13;;;16.50;99.90;;;;;;5012016;28;20476;-72
2022/06/04 01:58:00;;;;;;;2.90;2.60;;;16.50;99.90;;;;;;5048359;23;20481;-66
2022/06/04 02:00:34;;;;;;;2.27;2.10;;;16.40;99.90;;;;;;5031421;28;20954;-67
2022/06/04 02:03:42;;;;;;;5.37;3.80;;;16.40;99.90;;;;;;5031247;28;20393;-67
2022/06/04 02:06:13;;;;;;;1.80;1.70;;;16.40;99.90;;;;;;5022293;28;20419;-67
2022/06/04 02:08:48;;;;;;;2.30;2.03;;;16.40;99.90;;;;;;5031491;28;20416;-69
2022/06/04 02:11:17;;;;;;;2.33;2.13;;;16.40;99.90;;;;;;5031497;28;20394;-67
2022/06/04 02:13:46;;;;;;;2.73;2.10;;;16.40;99.90;;;;;;5031437;28;20702;-68
2022/06/04 02:16:21;;;;;;;2.83;2.57;;;16.40;99.90;;;;;;5031091;28;20405;-68
2022/06/04 02:18:48;;;;;;;3.77;1.93;;;16.40;99.90;;;;;;5031159;28;21025;-68
2022/06/04 02:21:15;;;;;;;2.20;2.00;;;16.40;99.90;;;;;;5031237;28;20430;-68
2022/06/04 02:23:41;;;;;;;2.53;2.27;;;16.30;99.90;;;;;;5031424;28;20410;-68
2022/06/04 02:26:07;;;;;;;2.77;2.57;;;16.30;99.90;;;;;;5032177;28;20798;-67
2022/06/04 02:28:32;;;;;;;3.57;1.80;;;16.30;99.90;;;;;;5035299;28;20195;-66
2022/06/04 02:31:14;;;;;;;2.43;1.90;;;16.30;99.90;;;;;;5035049;28;20657;-67
2022/06/04 02:34:07;;;;;;;2.80;2.43;;;16.30;99.90;;;;;;5034813;28;20704;-67
2022/06/04 02:36:56;;;;;;;4.93;2.30;;;16.20;99.90;;;;;;5034826;28;20422;-67
2022/06/04 02:39:36;;;;;;;2.13;1.93;;;16.20;99.90;;;;;;5035082;28;20794;-67
2022/06/04 02:42:05;;;;;;;2.63;2.40;;;16.20;99.90;;;;;;5035198;28;20410;-67
2022/06/04 02:44:38;;;;;;;2.10;1.90;;;16.20;99.90;;;;;;5034786;28;20398;-66
2022/06/04 02:47:22;;;;;;;1.83;1.73;;;16.20;99.90;;;;;;5034775;28;20418;-66
2022/06/04 02:49:56;;;;;;;1.93;1.67;;;16.10;99.90;;;;;;5034898;28;20758;-66
2022/06/04 02:52:23;;;;;;;2.20;2.10;;;16.00;99.90;;;;;;5034690;28;20382;-66
2022/06/04 02:54:57;;;;;;;2.20;2.00;;;16.00;99.90;;;;;;5034633;28;20406;-66
2022/06/04 02:57:24;;;;;;;1.67;1.57;;;16.00;99.90;;;;;;5034877;28;20777;-66
2022/06/04 02:59:51;;;;;;;2.20;2.00;;;16.00;99.90;;;;;;5034856;28;20744;-68
2022/06/04 03:02:19;;;;;;;2.10;1.77;;;16.00;99.90;;;;;;5034685;28;20407;-66
2022/06/04 03:04:50;;;;;;;2.47;2.27;;;16.00;99.90;;;;;;5034680;28;20409;-66
2022/06/04 03:07:17;;;;;;;2.50;1.80;;;15.90;99.90;;;;;;5034963;28;20433;-67
2022/06/04 03:09:44;;;;;;;2.13;1.93;;;15.90;99.90;;;;;;5034809;28;20432;-66
2022/06/04 03:12:12;;;;;;;2.10;1.90;;;15.90;99.90;;;;;;5034732;28;20893;-66
2022/06/04 03:14:37;;;;;;;1.97;1.87;;;15.80;99.90;;;;;;5034627;28;20457;-67
2022/06/04 03:17:06;;;;;;;2.13;1.93;;;15.80;99.90;;;;;;5034502;28;20430;-69
2022/06/04 03:19:32;;;;;;;2.30;2.10;;;15.80;99.90;;;;;;5034421;28;20229;-67
2022/06/04 03:21:57;;;;;;;2.57;2.00;;;15.70;99.90;;;;;;5034567;28;20415;-67
2022/06/04 03:24:23;;;;;;;2.53;1.93;;;15.70;99.90;;;;;;5034279;28;20163;-67
2022/06/04 03:26:49;;;;;;;1.63;1.53;;;15.70;99.90;;;;;;5034276;28;20680;-67
2022/06/04 03:29:14;;;;;;;2.30;2.07;;;15.70;99.90;;;;;;5034136;28;20535;-68
2022/06/04 03:31:40;;;;;;;2.63;2.20;;;15.70;99.90;;;;;;5034029;28;20180;-67
2022/06/04 03:34:06;;;;;;;2.40;2.03;;;15.70;99.90;;;;;;5033974;28;20168;-67
2022/06/04 03:36:33;;;;;;;2.50;2.30;;;15.70;99.90;;;;;;5033508;28;20199;-67
2022/06/04 03:39:00;;;;;;;1.70;1.60;;;15.60;99.90;;;;;;5033810;28;20200;-67
2022/06/04 03:41:26;;;;;;;2.00;1.90;;;15.60;99.90;;;;;;5033702;28;20465;-67
2022/06/04 03:43:54;;;;;;;2.10;1.73;;;15.60;99.90;;;;;;5033893;28;20411;-67
2022/06/04 03:46:23;;;;;;;2.57;1.90;;;15.60;99.90;;;;;;5033487;28;20194;-67
2022/06/04 03:48:49;;;;;;;2.03;1.93;;;15.60;99.90;;;;;;5033920;28;20399;-68
2022/06/04 03:51:14;;;;;;;2.20;2.00;;;15.60;99.90;;;;;;5033704;28;20779;-67
2022/06/04 03:53:40;;;;;;;6.27;2.33;;;15.70;99.90;;;;;;5034388;28;20172;-67
2022/06/04 03:56:05;;;;;;;2.13;1.90;;;15.70;99.90;;;;;;5033689;28;20222;-67
2022/06/04 03:58:31;;;;;;;2.53;2.33;;;15.60;99.90;;;;;;5033552;28;20199;-67
2022/06/04 04:00:57;;;;;;;2.00;1.80;;;15.70;99.90;;;;;;5034023;28;20160;-67
2022/06/04 04:03:23;;;;;;;4.57;1.80;;;15.70;99.90;;;;;;5033623;28;20645;-67
2022/06/04 04:05:54;;;;;;;1.93;1.77;;;15.70;99.90;;;;;;5033308;28;20410;-67
2022/06/04 04:08:22;;;;;;;2.10;1.90;;;15.70;99.90;;;;;;5033349;28;20431;-67
2022/06/04 04:10:48;;;;;;;2.67;2.47;;;15.70;99.90;;;;;;5033147;28;20449;-66
2022/06/04 04:13:16;;;;;;;3.80;1.70;;;15.70;99.90;;;;;;5033222;28;20916;-66
2022/06/04 04:15:42;;;;;;;2.17;2.07;;;15.70;99.90;;;;;;5033295;28;20225;-67
2022/06/04 04:18:08;;;;;;;2.00;1.90;;;15.80;99.90;;;;;;5033075;28;20488;-67
2022/06/04 04:20:39;;;;;;;3.00;1.97;;;15.90;99.90;;;;;;5033449;28;20491;-67
2022/06/04 04:23:07;;;;;;;1.77;1.63;;;15.90;99.90;;;;;;5033307;28;20415;-68
2022/06/04 04:25:34;;;;;;;2.23;2.13;;;16.10;99.90;;;;;;5033361;28;20414;-66
2022/06/04 04:28:01;;;;;;;3.70;2.17;;;16.10;99.90;;;;;;5032779;28;20812;-66
2022/06/04 04:30:29;;;;;;;2.27;2.10;;;16.10;99.90;;;;;;5033127;28;20406;-66
2022/06/04 04:32:56;;;;;;;2.80;1.97;;;16.00;99.90;;;;;;5032924;28;20771;-66
2022/06/04 04:35:25;;;;;;;1.87;1.63;;;16.00;99.90;;;;;;5032764;28;20493;-66
2022/06/04 04:37:52;;;;;;;2.10;1.90;;;16.00;99.90;;;;;;5032640;28;20446;-67
2022/06/04 04:40:20;;;;;;;2.63;2.10;;;15.90;99.90;;;;;;5032581;28;20403;-66
2022/06/04 04:42:48;;;;;;;2.80;1.37;;;15.90;99.90;;;;;;5032819;28;20498;-66
2022/06/04 04:45:14;;;;;;;2.37;2.17;;;15.90;99.90;;;;;;5032540;28;20399;-67
2022/06/04 04:47:42;;;;;;;2.20;2.00;;;16.00;99.90;;;;;;5032134;28;20493;-66
2022/06/04 04:50:13;;;;;;;2.50;1.77;;;15.90;99.90;;;;;;5031845;28;20434;-67
2022/06/04 04:52:39;;;;;;;3.40;1.90;;;15.90;99.90;;;;;;5032711;28;20386;-66
2022/06/04 04:55:05;;;;;;;1.60;1.50;;;15.90;99.90;;;;;;5032227;28;20830;-66
2022/06/04 04:57:30;;;;;;;1.83;1.73;;;15.90;99.90;;;;;;5032073;28;20214;-66
2022/06/04 04:59:56;;;;;;;2.57;2.37;;;16.00;99.90;;;;;;5032281;28;20399;-66
2022/06/04 05:02:21;;;;;;;2.30;1.97;;;16.00;99.90;;;;;;5032142;28;20639;-66
2022/06/04 05:04:47;;;;;;;2.00;1.70;;;16.10;99.90;;;;;;5032136;28;20502;-67
2022/06/04 05:07:13;;;;;;;1.80;1.70;;;16.10;99.90;;;;;;5032297;28;20673;-67
2022/06/04 05:09:39;;;;;;;2.50;2.30;;;16.10;99.90;;;;;;5032326;28;20402;-66
2022/06/04 05:12:08;;;;;;;2.50;1.87;;;16.20;99.90;;;;;;5032530;28;20167;-67
2022/06/04 05:14:34;;;;;;;3.53;3.33;;;16.30;99.90;;;;;;5032245;28;20771;-67
2022/06/04 05:16:59;;;;;;;2.43;1.90;;;16.60;99.90;;;;;;5032134;28;20425;-68
2022/06/04 05:19:25;;;;;;;3.77;1.63;;;16.70;99.90;;;;;;5030900;28;21064;-68
2022/06/04 05:21:52;;;;;;;3.13;1.80;;;16.80;99.90;;;;;;5032088;28;20172;-68
2022/06/04 05:24:24;;;;;;;2.40;2.20;;;16.80;99.90;;;;;;5032567;28;20537;-68
2022/06/04 05:26:50;;;;;;;1.63;1.53;;;16.90;99.90;;;;;;5032170;28;20557;-68
2022/06/04 05:29:17;;;;;;;1.60;1.50;;;17.30;99.90;;;;;;5032028;28;20939;-68
2022/06/04 05:31:43;;;;;;;2.10;1.90;;;17.50;99.90;;;;;;5031636;28;20721;-67
2022/06/04 05:34:10;;;;;;;2.03;1.93;;;17.50;99.90;;;;;;5031741;28;20906;-67
2022/06/04 05:36:36;;;;;;;2.30;1.97;;;17.50;99.90;;;;;;5032009;28;20434;-68
2022/06/04 05:39:04;;;;;;;2.27;1.70;;;17.60;99.90;;;;;;5031682;28;20555;-67
2022/06/04 05:41:29;;;;;;;2.60;2.33;;;17.70;99.90;;;;;;5031985;28;20455;-67
2022/06/04 05:43:55;;;;;;;1.50;1.40;;;17.60;99.90;;;;;;5031520;28;20400;-66
2022/06/04 05:46:22;;;;;;;3.40;1.50;;;17.80;99.90;;;;;;5031368;28;20171;-67
2022/06/04 05:48:48;;;;;;;1.80;1.50;;;17.70;99.90;;;;;;5031888;28;20186;-68
2022/06/04 05:51:17;;;;;;;4.87;2.27;;;17.50;99.90;;;;;;5031528;28;20440;-68
2022/06/04 05:53:43;;;;;;;2.10;1.87;;;17.40;99.90;;;;;;5031398;28;20416;-68
2022/06/04 05:56:21;;;;;;;2.13;1.93;;;17.50;99.90;;;;;;5031487;28;20409;-68
2022/06/04 05:58:48;;;;;;;2.40;1.80;;;17.40;99.90;;;;;;5031487;28;20741;-67
2022/06/04 06:01:15;;;;;;;2.10;1.77;;;17.40;99.90;;;;;;5031404;28;20903;-67
2022/06/04 06:03:41;;;;;;;1.93;1.70;;;17.40;99.90;;;;;;5031397;28;20408;-67
2022/06/04 06:06:12;;;;;;;1.90;1.80;;;17.40;99.90;;;;;;5031200;28;20403;-68
2022/06/04 06:08:38;;;;;;;2.80;1.50;;;17.40;99.90;;;;;;5031353;28;20189;-67
2022/06/04 06:11:10;;;;;;;3.00;2.20;;;17.50;99.90;;;;;;5031088;28;20412;-68
2022/06/04 06:13:36;;;;;;;2.80;2.07;;;17.50;99.90;;;;;;5031350;28;20333;-67
2022/06/04 06:16:11;;;;;;;1.70;1.60;;;17.70;99.90;;;;;;5029769;28;20820;-67
2022/06/04 06:18:37;;;;;;;2.00;1.53;;;18.00;99.90;;;;;;5031384;28;20205;-67
2022/06/04 06:21:15;;;;;;;1.57;1.47;;;18.50;99.90;;;;;;5031173;28;20905;-66
2022/06/04 06:23:41;;;;;;;2.20;1.83;;;18.50;99.90;;;;;;5031052;28;20405;-66
2022/06/04 06:26:08;;;;;;;2.50;2.10;;;18.60;99.90;;;;;;5030747;28;20439;-67
2022/06/04 06:28:36;;;;;;;1.53;1.43;;;18.70;99.90;;;;;;5031086;28;20503;-67
2022/06/04 06:31:02;;;;;;;6.47;2.10;;;18.80;99.90;;;;;;5031205;28;20406;-67
2022/06/04 06:33:28;;;;;;;2.90;2.63;;;18.80;99.90;;;;;;5031425;28;20782;-67
2022/06/04 06:35:58;;;;;;;2.33;2.10;;;18.60;99.90;;;;;;5031011;28;20501;-67
2022/06/04 06:38:24;;;;;;;2.50;2.30;;;18.60;99.90;;;;;;5030770;28;20579;-68
2022/06/04 06:40:51;;;;;;;2.07;1.80;;;18.50;99.90;;;;;;5031014;28;20410;-67
2022/06/04 06:43:17;;;;;;;3.37;2.03;;;18.50;99.90;;;;;;5030856;28;20619;-68
2022/06/04 06:45:44;;;;;;;1.90;1.77;;;18.50;99.90;;;;;;5031134;28;20479;-68
2022/06/04 06:48:10;;;;;;;2.00;1.70;;;18.50;99.90;;;;;;5031021;28;20190;-68
2022/06/04 06:50:36;;;;;;;2.00;1.90;;;18.60;99.90;;;;;;5031002;28;20505;-67
2022/06/04 06:53:02;;;;;;;2.40;1.80;;;18.60;99.90;;;;;;5031141;28;20176;-67
2022/06/04 06:55:27;;;;;;;2.10;1.90;;;18.40;99.90;;;;;;5030829;28;20468;-68
2022/06/04 06:57:53;;;;;;;2.07;1.87;;;18.40;99.90;;;;;;5030614;28;21010;-67
2022/06/04 07:00:18;;;;;;;2.60;1.73;;;18.30;99.90;;;;;;5030851;28;20213;-67
2022/06/04 07:02:44;;;;;;;2.47;1.80;;;18.10;99.90;;;;;;5031077;28;20182;-67
2022/06/04 07:05:10;;;;;;;1.67;1.33;;;18.20;99.90;;;;;;5030660;28;20168;-67
2022/06/04 07:07:36;;;;;;;2.20;2.00;;;18.40;99.90;;;;;;5030645;28;20579;-67
2022/06/04 07:10:03;;;;;;;3.30;2.10;;;18.50;99.90;;;;;;5030621;28;20481;-67
2022/06/04 07:12:29;;;;;;;2.30;1.97;;;18.50;99.90;;;;;;5032122;28;20406;-68
2022/06/04 07:14:54;;;;;;;1.60;1.50;;;18.40;99.90;;;;;;5034150;28;20897;-67
2022/06/04 07:17:20;;;;;;;1.83;1.73;;;18.50;99.90;;;;;;5034084;28;20192;-67
2022/06/04 07:19:45;;;;;;;2.50;1.93;;;18.70;99.50;;;;;;5034269;28;20168;-67
2022/06/04 07:22:11;;;;;;;3.20;1.77;;;18.80;99.00;;;;;;5034217;28;20164;-68
2022/06/04 07:24:37;;;;;;;1.93;1.47;;;18.70;99.00;;;;;;5034200;28;20176;-68
2022/06/04 07:27:03;;;;;;;2.47;2.27;;;18.60;99.10;;;;;;5032651;28;20299;-68
2022/06/04 07:29:29;;;;;;;1.93;1.40;;;18.60;99.00;;;;;;5034154;28;20496;-68
2022/06/04 07:31:55;;;;;;;3.13;1.93;;;18.60;99.00;;;;;;5034421;28;20443;-68
2022/06/04 07:34:21;;;;;;;2.73;1.80;;;18.60;98.70;;;;;;5034315;28;20180;-67
2022/06/04 07:36:46;;;;;;;3.27;1.53;;;18.70;98.70;;;;;;5034050;28;20200;-67
2022/06/04 07:39:14;;;;;;;1.50;1.40;;;18.80;98.80;;;;;;5032646;28;20262;-68
2022/06/04 07:41:43;;;;;;;1.87;1.77;;;18.90;98.10;;;;;;5033900;28;20161;-68
2022/06/04 07:44:11;;;;;;;2.60;1.63;;;19.00;98.30;;;;;;5033924;28;20954;-68
2022/06/04 07:46:37;;;;;;;1.50;1.40;;;18.90;98.20;;;;;;5034101;28;20441;-68
2022/06/04 07:49:04;;;;;;;2.60;2.00;;;19.00;98.00;;;;;;5033848;28;20411;-68
2022/06/04 07:51:32;;;;;;;2.63;1.53;;;18.90;98.00;;;;;;5033806;28;20217;-67
2022/06/04 07:53:58;;;;;;;1.73;1.63;;;19.00;98.30;;;;;;5033832;28;20418;-67
2022/06/04 07:56:24;;;;;;;1.83;1.40;;;18.90;98.10;;;;;;5033254;28;20403;-67
2022/06/04 07:58:50;;;;;;;1.50;1.40;;;18.90;98.20;;;;;;5056080;22;20223;-71
2022/06/04 08:01:18;;;;;;;1.50;1.40;;;18.80;98.10;;;;;;5034113;28;20222;-71
2022/06/04 08:03:45;;;;;;;1.93;1.80;;;18.80;98.10;;;;;;5034023;28;20430;-72
2022/06/04 08:06:13;;;;;;;1.43;1.27;;;18.90;98.20;;;;;;5033700;28;20410;-71
2022/06/04 08:08:40;;;;;;;1.33;1.20;;;19.00;98.10;;;;;;5033628;28;20437;-71
2022/06/04 08:11:30;;;;;;;3.77;1.97;;;18.90;98.10;;;;;;5033989;28;20411;-71
2022/06/04 08:13:52;;;;;;;1.37;1.27;;;19.00;97.80;;;;;;5033718;28;20995;-71
2022/06/04 08:16:18;;;;;;;2.90;1.67;;;19.10;98.10;;;;;;5032103;28;20894;-73
2022/06/04 08:18:45;;;;;;;1.63;1.53;;;19.10;98.00;;;;;;5033677;28;20463;-72
2022/06/04 08:21:10;;;;;;;1.87;1.50;;;19.20;98.00;;;;;;5033570;28;20418;-72
2022/06/04 08:23:39;;;;;;;1.90;1.70;;;19.10;98.00;;;;;;5032322;28;20755;-72
2022/06/04 08:26:07;;;;;;;2.40;1.83;;;19.20;98.10;;;;;;5032894;28;20218;-72
2022/06/04 08:28:33;;;;;;;5.80;1.50;;;19.30;97.70;;;;;;5033695;28;21001;-72
2022/06/04 08:31:02;;;;;;;3.53;1.50;;;19.30;97.50;;;;;;5033390;28;20403;-72
2022/06/04 08:33:28;;;;;;;1.60;1.50;;;19.20;97.20;;;;;;5032119;28;20190;-72
2022/06/04 08:35:53;;;;;;;1.77;1.37;;;19.30;97.10;;;;;;5032878;28;20812;-73
2022/06/04 08:38:19;;;;;;;1.73;1.40;;;19.40;97.10;;;;;;5033174;28;20207;-72
2022/06/04 08:40:54;;;;;;;1.67;1.47;;;19.50;97.10;;;;;;5033114;28;20639;-72
2022/06/04 08:43:24;;;;;;;2.17;1.97;;;19.50;96.60;;;;;;5033183;28;20505;-72
2022/06/04 08:45:49;;;;;;;1.20;1.10;;;19.50;96.60;;;;;;5032972;28;20445;-72
2022/06/04 08:48:32;;;;;;;2.00;1.90;;;19.50;96.10;;;;;;5033020;28;20422;-72
2022/06/04 08:50:58;;;;;;;1.57;1.37;;;19.60;96.00;;;;;;5033253;28;20172;-72
2022/06/04 08:53:27;;;;;;;1.20;1.10;;;19.50;96.00;;;;;;5032805;28;20402;-72
2022/06/04 08:59:01;;;;;;;1.87;1.30;;;19.80;96.00;;;;;;5032723;28;20472;-72
2022/06/04 09:01:34;;;;;;;1.37;1.27;;;19.80;95.80;;;;;;5032771;28;20456;-72
2022/06/04 09:04:38;;;;;;;2.00;1.67;;;20.00;95.70;;;;;;5033111;28;20496;-72
2022/06/04 09:07:15;;;;;;;1.80;1.50;;;20.00;95.70;;;;;;5032843;28;20469;-72
2022/06/04 09:09:51;;;;;;;1.60;1.33;;;20.20;95.60;;;;;;5032867;28;20460;-72
2022/06/04 09:12:34;;;;;;;1.30;1.20;;;20.30;95.80;;;;;;5032493;28;20414;-71
2022/06/04 09:15:39;;;;;;;1.30;1.20;;;20.50;96.30;;;;;;5032384;28;20461;-72
2022/06/04 09:18:15;;;;;;;5.40;1.40;;;20.60;95.70;;;;;;5032308;28;21009;-72
2022/06/04 09:20:46;;;;;;;3.57;1.50;;;20.50;95.40;;;;;;5032568;28;20764;-72
2022/06/04 09:23:39;;;;;;;2.73;1.80;;;20.60;95.30;;;;;;5032202;28;20404;-71
2022/06/04 09:26:14;;;;;;;3.63;1.50;;;20.70;94.90;;;;;;5026387;28;20409;-71
2022/06/04 09:28:54;;;;;;;1.97;1.70;;;20.60;94.80;;;;;;5032402;28;20427;-72
2022/06/04 09:31:43;;;;;;;3.20;2.07;;;20.70;94.90;;;;;;5032518;28;20400;-72
2022/06/04 09:34:14;;;;;;;2.07;1.43;;;20.80;95.00;;;;;;5026684;28;20945;-73
2022/06/04 09:36:42;;;;;;;2.50;1.63;;;20.80;95.40;;;;;;5030513;28;20415;-72
2022/06/04 09:39:28;;;;;;;1.80;1.60;;;20.80;95.40;;;;;;5032016;28;20467;-72
2022/06/04 09:42:03;;;;;;;2.10;1.77;;;20.80;95.70;;;;;;5031965;28;20394;-72
2022/06/04 09:44:30;;;;;;;2.27;2.07;;;20.90;95.60;;;;;;5031892;28;20407;-72
2022/06/04 09:47:22;;;;;;;7.13;1.80;;;20.90;95.50;;;;;;5031688;28;20401;-72
2022/06/04 09:49:54;;;;;;;1.50;1.40;;;21.00;95.40;;;;;;5032124;28;20402;-72
2022/06/04 09:52:25;;;;;;;1.80;1.70;;;21.00;95.50;;;;;;5032126;28;20884;-71
2022/06/04 09:55:00;;;;;;;2.53;1.80;;;21.20;95.20;;;;;;5032595;28;20450;-72
2022/06/04 09:57:31;;;;;;;1.53;1.43;;;21.40;94.90;;;;;;5032198;28;20442;-72
2022/06/04 09:59:59;;;;;;;2.10;1.90;;;21.40;94.10;;;;;;5033020;28;20496;-72
2022/06/04 10:02:26;;;;;;;1.53;1.43;;;21.50;94.00;;;;;;5032112;28;20492;-71
2022/06/04 10:05:06;;;;;;;1.40;1.30;;;21.60;93.50;;;;;;5031579;28;20426;-71
2022/06/04 10:07:39;;;;;;;1.60;1.50;;;21.60;93.40;;;;;;5031618;28;20428;-71
2022/06/04 10:10:29;;;;;;;1.70;1.60;;;21.70;93.40;;;;;;5031862;28;20397;-71
2022/06/04 10:15:48;;;;;;;2.83;1.63;;;21.90;93.10;;;;;;5032050;28;20860;-71
2022/06/04 10:18:24;;;;;;;1.43;1.33;;;22.20;93.00;;;;;;5031907;28;20442;-71
2022/06/04 10:21:01;;;;;;;1.93;1.63;;;22.40;92.60;;;;;;5032160;28;20921;-73
2022/06/04 10:23:28;;;;;;;1.70;1.60;;;22.40;92.70;;;;;;5031824;28;20860;-70
2022/06/04 10:26:25;;;;;;;1.50;1.40;;;22.60;92.70;;;;;;5031439;28;20410;-72
2022/06/04 10:29:21;;;;;;;1.73;1.63;;;22.70;92.20;;;;;;5031628;28;20508;-71
2022/06/04 10:31:59;;;;;;;2.00;1.77;;;22.80;91.90;;;;;;5013342;28;20579;-71
2022/06/04 10:34:33;;;;;;;1.50;1.40;;;22.80;90.80;;;;;;5031355;28;20409;-71
2022/06/04 10:37:10;;;;;;;4.90;1.73;;;22.90;90.80;;;;;;5031489;28;20858;-72
2022/06/04 10:39:59;;;;;;;13.03;2.17;;;22.90;90.60;;;;;;5031708;28;20545;-72
2022/06/04 10:42:53;;;;;;;2.50;1.87;;;22.70;90.60;;;;;;5031369;28;20462;-72
2022/06/04 10:45:29;;;;;;;1.33;1.23;;;22.70;90.80;;;;;;5009911;28;20408;-72
2022/06/04 10:48:24;;;;;;;2.10;1.70;;;22.90;90.60;;;;;;5033953;28;20446;-72
2022/06/04 10:53:54;;;;;;;1.80;1.70;;;23.30;90.60;;;;;;5035222;28;20772;-72
2022/06/04 10:56:37;;;;;;;1.87;1.77;;;24.00;90.30;;;;;;5034952;28;20400;-72
2022/06/04 10:59:35;;;;;;;2.53;1.30;;;24.20;89.10;;;;;;5034962;28;20461;-72
2022/06/04 11:02:15;;;;;;;1.40;1.30;;;24.10;88.60;;;;;;5019072;28;20493;-72
2022/06/04 11:05:00;;;;;;;1.30;1.20;;;24.10;88.80;;;;;;5034676;28;20503;-72
2022/06/04 11:07:52;;;;;;;1.73;1.63;;;23.90;89.40;;;;;;5035037;28;20432;-72
2022/06/04 11:10:30;;;;;;;2.33;1.73;;;24.00;87.60;;;;;;5035008;28;20922;-72
2022/06/04 11:13:04;;;;;;;5.93;1.70;;;24.00;87.40;;;;;;5035131;28;20637;-72
2022/06/04 11:15:34;;;;;;;1.80;1.30;;;23.90;87.10;;;;;;5033577;28;20494;-72
2022/06/04 11:18:19;;;;;;;2.10;1.77;;;24.00;86.20;;;;;;5034641;28;20478;-72
2022/06/04 11:21:01;;;;;;;1.50;1.40;;;24.00;87.00;;;;;;5034878;28;20435;-72
2022/06/04 11:23:52;;;;;;;1.50;1.40;;;24.40;86.10;;;;;;5034861;28;20432;-72
2022/06/04 11:26:40;;;;;;;1.40;1.30;;;24.20;85.60;;;;;;5034459;28;20407;-72
2022/06/04 11:29:08;;;;;;;2.40;1.20;;;24.10;83.40;;;;;;5034749;28;20400;-72
2022/06/04 11:32:04;;;;;;;1.53;1.43;;;24.00;83.80;;;;;;5034803;28;20439;-72
2022/06/04 11:34:58;;;;;;;1.43;1.33;;;23.90;84.70;;;;;;5034355;28;20398;-72
2022/06/04 11:37:50;;;;;;;1.60;1.50;;;24.10;83.80;;;;;;5034526;28;20421;-73
2022/06/04 11:40:39;;;;;;;1.60;1.50;;;24.20;84.20;;;;;;5034417;28;20456;-72
2022/06/04 11:43:21;;;;;;;2.20;1.83;;;24.20;84.10;;;;;;5034559;28;20405;-72
2022/06/04 11:46:05;;;;;;;2.30;1.90;;;24.30;84.20;;;;;;5034250;28;20919;-72
2022/06/04 11:48:56;;;;;;;2.20;1.47;;;24.30;85.10;;;;;;5034206;28;20426;-71
2022/06/04 11:51:41;;;;;;;1.70;1.47;;;24.60;84.60;;;;;;5034172;28;20966;-72
2022/06/04 11:54:39;;;;;;;1.40;1.30;;;24.50;84.00;;;;;;5034863;28;20397;-73
2022/06/04 11:57:30;;;;;;;1.50;1.40;;;24.90;84.40;;;;;;5033894;28;20537;-71
2022/06/04 12:00:19;;;;;;;1.67;1.57;;;24.60;83.60;;;;;;5034394;28;20418;-72
2022/06/04 12:03:09;;;;;;;1.70;1.60;;;24.80;84.30;;;;;;5034284;28;20753;-72
2022/06/04 12:05:46;;;;;;;1.80;1.70;;;24.70;84.70;;;;;;5034226;28;20922;-72
2022/06/04 12:08:19;;;;;;;1.70;1.60;;;24.80;84.60;;;;;;5034043;28;20421;-72
2022/06/04 12:10:45;;;;;;;2.27;2.10;;;24.80;85.80;;;;;;5033980;28;20481;-72
2022/06/04 12:13:24;;;;;;;2.93;2.10;;;24.70;85.90;;;;;;5033885;28;20430;-72
2022/06/04 12:16:03;;;;;;;2.50;1.90;;;24.80;86.00;;;;;;5033670;28;20199;-72
2022/06/04 12:18:32;;;;;;;1.97;1.80;;;24.80;85.40;;;;;;5033759;28;20441;-72
2022/06/04 12:26:35;;;;;;;2.40;1.67;;;24.70;86.40;;;;;;5033984;28;20422;-72
2022/06/04 12:29:23;;;;;;;2.10;1.77;;;24.50;87.30;;;;;;5033795;28;20428;-72
2022/06/04 12:31:58;;;;;;;2.50;1.80;;;24.70;87.00;;;;;;5033867;28;20420;-72
2022/06/04 12:34:37;;;;;;;1.90;1.80;;;24.80;87.70;;;;;;5033415;28;20829;-73
2022/06/04 12:37:06;;;;;;;2.33;2.13;;;24.80;88.10;;;;;;5031902;28;20490;-72
2022/06/04 12:39:39;;;;;;;2.93;2.70;;;24.70;88.10;;;;;;5033297;28;20463;-72
2022/06/04 12:42:21;;;;;;;3.57;1.67;;;24.60;89.00;;;;;;5033087;28;20427;-72
2022/06/04 12:44:59;;;;;;;3.27;1.77;;;24.90;89.10;;;;;;5033006;28;20394;-72
2022/06/04 12:47:29;;;;;;;2.60;1.80;;;25.00;87.40;;;;;;5032957;28;20459;-72
2022/06/04 12:50:01;;;;;;;3.20;2.40;;;24.70;88.50;;;;;;5032994;28;20426;-72
2022/06/04 12:52:32;;;;;;;2.40;2.10;;;24.50;90.00;;;;;;5032815;28;20431;-72
2022/06/04 12:55:16;;;;;;;2.70;2.37;;;24.50;90.30;;;;;;5032607;28;20407;-72
2022/06/04 12:58:02;;;;;;;2.60;2.43;;;24.50;90.60;;;;;;5032731;28;20460;-72
2022/06/04 13:00:38;;;;;;;2.37;2.27;;;24.30;90.80;;;;;;5032617;28;20401;-72
2022/06/04 13:03:06;;;;;;;3.07;2.77;;;24.40;91.00;;;;;;5032955;28;20437;-72
2022/06/04 13:05:35;;;;;;;2.63;2.53;;;24.40;91.10;;;;;;5032638;28;20440;-72
2022/06/04 13:08:27;;;;;;;5.50;1.90;;;24.50;90.40;;;;;;5032733;28;20806;-72
2022/06/04 13:11:32;;;;;;;2.60;1.70;;;24.60;90.00;;;;;;5032466;28;20919;-72
2022/06/04 13:14:28;;;;;;;2.10;1.80;;;25.00;88.80;;;;;;5012736;28;21002;-73
2022/06/04 13:16:57;;;;;;;3.03;2.27;;;24.80;87.30;;;;;;5033633;28;20830;-72
2022/06/04 13:19:41;;;;;;;2.20;1.90;;;24.90;88.00;;;;;;5032354;28;20481;-72
2022/06/04 13:22:49;;;;;;;1.70;1.60;;;24.70;87.60;;;;;;5032494;28;20420;-72
2022/06/04 13:25:18;;;;;;;1.53;1.27;;;24.60;86.90;;;;;;5023154;28;20732;-71
2022/06/04 13:27:51;;;;;;;2.73;1.93;;;24.60;86.80;;;;;;5032047;28;20821;-71
2022/06/04 13:30:20;;;;;;;1.70;1.60;;;24.70;86.20;;;;;;5032319;28;20483;-72
2022/06/04 13:32:47;;;;;;;1.63;1.53;;;24.90;85.00;;;;;;5032305;28;20448;-72
2022/06/04 13:35:23;;;;;;;2.47;2.27;;;25.20;84.70;;;;;;5032233;28;20407;-72
2022/06/04 13:37:51;;;;;;;1.70;1.60;;;24.90;83.70;;;;;;5032635;28;20455;-72
2022/06/04 13:40:29;;;;;;;1.30;1.20;;;24.80;83.00;;;;;;5032607;28;20918;-72